sensor_id;sensor_type;location;lat;lon;timestamp;P1;durP1;ratioP1;P2;durP2;ratioP2
37917;SDS011;23749;51.410;21.130;2022-10-19T00:01:46;8.60;;;6.30;;
37917;SDS011;23749;51.410;21.130;2022-10-19T00:04:56;7.30;;;6.60;;
37917;SDS011;23749;51.410;21.130;2022-10-19T00:08:06;8.37;;;6.87;;
37917;SDS011;23749;51.410;21.130;2022-10-19T00:11:17;11.53;;;10.27;;
37917;SDS011;23749;51.410;21.130;2022-10-19T00:14:27;8.07;;;7.27;;
37917;SDS011;23749;51.410;21.130;2022-10-19T00:17:38;8.87;;;7.73;;
37917;SDS011;23749;51.410;21.130;2022-10-19T00:20:48;7.97;;;7.17;;
37917;SDS011;23749;51.410;21.130;2022-10-19T00:23:59;8.50;;;7.60;;
37917;SDS011;23749;51.410;21.130;2022-10-19T00:27:09;8.97;;;8.00;;
37917;SDS011;23749;51.410;21.130;2022-10-19T00:30:19;9.47;;;8.07;;
37917;SDS011;23749;51.410;21.130;2022-10-19T00:33:30;10.17;;;8.43;;
37917;SDS011;23749;51.410;21.130;2022-10-19T00:36:40;8.83;;;7.80;;
37917;SDS011;23749;51.410;21.130;2022-10-19T00:39:50;9.53;;;8.13;;
37917;SDS011;23749;51.410;21.130;2022-10-19T00:43:01;9.70;;;8.70;;
37917;SDS011;23749;51.410;21.130;2022-10-19T00:46:12;10.43;;;8.83;;
37917;SDS011;23749;51.410;21.130;2022-10-19T00:49:23;10.70;;;8.43;;
37917;SDS011;23749;51.410;21.130;2022-10-19T00:52:34;10.13;;;8.50;;
37917;SDS011;23749;51.410;21.130;2022-10-19T00:55:45;11.97;;;9.03;;
37917;SDS011;23749;51.410;21.130;2022-10-19T00:58:55;10.83;;;9.00;;
37917;SDS011;23749;51.410;21.130;2022-10-19T01:02:06;12.87;;;9.20;;
37917;SDS011;23749;51.410;21.130;2022-10-19T01:05:16;10.33;;;8.63;;
37917;SDS011;23749;51.410;21.130;2022-10-19T01:08:27;11.80;;;9.67;;
37917;SDS011;23749;51.410;21.130;2022-10-19T01:21:15;12.27;;;10.17;;
37917;SDS011;23749;51.410;21.130;2022-10-19T01:24:47;13.00;;;10.60;;
37917;SDS011;23749;51.410;21.130;2022-10-19T01:31:33;10.60;;;8.37;;
37917;SDS011;23749;51.410;21.130;2022-10-19T01:34:58;13.00;;;10.50;;
37917;SDS011;23749;51.410;21.130;2022-10-19T01:45:12;10.97;;;9.47;;
37917;SDS011;23749;51.410;21.130;2022-10-19T01:48:25;12.40;;;10.07;;
37917;SDS011;23749;51.410;21.130;2022-10-19T01:51:39;14.20;;;10.30;;
37917;SDS011;23749;51.410;21.130;2022-10-19T01:54:52;14.00;;;10.03;;
37917;SDS011;23749;51.410;21.130;2022-10-19T01:58:04;11.77;;;9.53;;
37917;SDS011;23749;51.410;21.130;2022-10-19T02:01:16;13.20;;;10.70;;
37917;SDS011;23749;51.410;21.130;2022-10-19T02:04:27;11.93;;;9.27;;
37917;SDS011;23749;51.410;21.130;2022-10-19T02:07:38;11.47;;;10.23;;
37917;SDS011;23749;51.410;21.130;2022-10-19T02:10:49;16.67;;;10.23;;
37917;SDS011;23749;51.410;21.130;2022-10-19T02:14:00;15.80;;;10.80;;
37917;SDS011;23749;51.410;21.130;2022-10-19T02:17:15;14.50;;;10.77;;
37917;SDS011;23749;51.410;21.130;2022-10-19T02:20:26;11.43;;;10.00;;
37917;SDS011;23749;51.410;21.130;2022-10-19T02:23:37;15.70;;;10.60;;
37917;SDS011;23749;51.410;21.130;2022-10-19T02:26:48;16.23;;;10.37;;
37917;SDS011;23749;51.410;21.130;2022-10-19T02:29:59;14.10;;;10.27;;
37917;SDS011;23749;51.410;21.130;2022-10-19T02:33:09;15.30;;;10.57;;
37917;SDS011;23749;51.410;21.130;2022-10-19T02:36:21;12.80;;;10.07;;
37917;SDS011;23749;51.410;21.130;2022-10-19T02:39:31;14.67;;;11.10;;
37917;SDS011;23749;51.410;21.130;2022-10-19T02:42:43;14.83;;;11.10;;
37917;SDS011;23749;51.410;21.130;2022-10-19T02:46:02;15.07;;;10.50;;
37917;SDS011;23749;51.410;21.130;2022-10-19T02:49:14;12.63;;;10.20;;
37917;SDS011;23749;51.410;21.130;2022-10-19T02:52:25;13.37;;;10.37;;
37917;SDS011;23749;51.410;21.130;2022-10-19T02:55:35;13.97;;;10.77;;
37917;SDS011;23749;51.410;21.130;2022-10-19T02:58:45;14.83;;;10.60;;
37917;SDS011;23749;51.410;21.130;2022-10-19T03:01:55;13.80;;;10.87;;
37917;SDS011;23749;51.410;21.130;2022-10-19T03:05:06;15.97;;;10.43;;
37917;SDS011;23749;51.410;21.130;2022-10-19T03:08:16;13.53;;;10.73;;
37917;SDS011;23749;51.410;21.130;2022-10-19T03:11:27;15.07;;;11.03;;
37917;SDS011;23749;51.410;21.130;2022-10-19T03:14:37;13.23;;;10.50;;
37917;SDS011;23749;51.410;21.130;2022-10-19T03:17:48;13.33;;;10.73;;
37917;SDS011;23749;51.410;21.130;2022-10-19T03:21:05;15.10;;;10.63;;
37917;SDS011;23749;51.410;21.130;2022-10-19T03:24:16;18.13;;;11.17;;
37917;SDS011;23749;51.410;21.130;2022-10-19T03:27:27;16.47;;;11.63;;
37917;SDS011;23749;51.410;21.130;2022-10-19T03:30:37;17.40;;;11.67;;
37917;SDS011;23749;51.410;21.130;2022-10-19T03:33:48;16.50;;;11.43;;
37917;SDS011;23749;51.410;21.130;2022-10-19T03:36:59;14.43;;;10.80;;
37917;SDS011;23749;51.410;21.130;2022-10-19T03:40:09;16.07;;;11.20;;
37917;SDS011;23749;51.410;21.130;2022-10-19T03:43:20;19.53;;;12.30;;
37917;SDS011;23749;51.410;21.130;2022-10-19T03:46:30;16.57;;;11.67;;
37917;SDS011;23749;51.410;21.130;2022-10-19T03:49:41;16.10;;;12.03;;
37917;SDS011;23749;51.410;21.130;2022-10-19T03:52:53;16.60;;;12.07;;
37917;SDS011;23749;51.410;21.130;2022-10-19T03:56:04;18.33;;;12.57;;
37917;SDS011;23749;51.410;21.130;2022-10-19T03:59:15;16.93;;;12.07;;
37917;SDS011;23749;51.410;21.130;2022-10-19T04:02:25;16.80;;;11.77;;
37917;SDS011;23749;51.410;21.130;2022-10-19T04:05:36;16.47;;;12.37;;
37917;SDS011;23749;51.410;21.130;2022-10-19T04:08:47;17.40;;;12.00;;
37917;SDS011;23749;51.410;21.130;2022-10-19T04:11:57;16.83;;;12.13;;
37917;SDS011;23749;51.410;21.130;2022-10-19T04:15:08;18.00;;;12.73;;
37917;SDS011;23749;51.410;21.130;2022-10-19T04:18:18;17.03;;;12.63;;
37917;SDS011;23749;51.410;21.130;2022-10-19T04:21:30;18.03;;;12.30;;
37917;SDS011;23749;51.410;21.130;2022-10-19T04:24:40;16.13;;;12.50;;
37917;SDS011;23749;51.410;21.130;2022-10-19T04:27:51;14.87;;;12.00;;
37917;SDS011;23749;51.410;21.130;2022-10-19T04:31:02;16.23;;;11.47;;
37917;SDS011;23749;51.410;21.130;2022-10-19T04:34:13;14.97;;;11.93;;
37917;SDS011;23749;51.410;21.130;2022-10-19T04:37:23;16.97;;;11.43;;
37917;SDS011;23749;51.410;21.130;2022-10-19T04:40:34;14.50;;;10.70;;
37917;SDS011;23749;51.410;21.130;2022-10-19T04:43:45;13.27;;;11.20;;
37917;SDS011;23749;51.410;21.130;2022-10-19T04:46:55;13.33;;;10.60;;
37917;SDS011;23749;51.410;21.130;2022-10-19T04:50:06;14.37;;;11.03;;
37917;SDS011;23749;51.410;21.130;2022-10-19T04:53:16;12.27;;;8.47;;
37917;SDS011;23749;51.410;21.130;2022-10-19T04:56:28;11.53;;;8.80;;
37917;SDS011;23749;51.410;21.130;2022-10-19T04:59:39;11.30;;;8.00;;
37917;SDS011;23749;51.410;21.130;2022-10-19T05:02:50;12.33;;;9.43;;
37917;SDS011;23749;51.410;21.130;2022-10-19T05:06:00;11.70;;;8.43;;
37917;SDS011;23749;51.410;21.130;2022-10-19T05:09:10;9.53;;;8.57;;
37917;SDS011;23749;51.410;21.130;2022-10-19T05:12:21;11.50;;;9.30;;
37917;SDS011;23749;51.410;21.130;2022-10-19T05:15:31;12.57;;;8.60;;
37917;SDS011;23749;51.410;21.130;2022-10-19T05:18:42;14.97;;;8.33;;
37917;SDS011;23749;51.410;21.130;2022-10-19T05:21:55;9.50;;;8.10;;
37917;SDS011;23749;51.410;21.130;2022-10-19T05:25:06;13.63;;;7.90;;
37917;SDS011;23749;51.410;21.130;2022-10-19T05:28:16;13.33;;;8.37;;
37917;SDS011;23749;51.410;21.130;2022-10-19T05:31:27;12.43;;;9.20;;
37917;SDS011;23749;51.410;21.130;2022-10-19T05:34:38;14.17;;;8.53;;
37917;SDS011;23749;51.410;21.130;2022-10-19T05:37:52;11.50;;;8.60;;
37917;SDS011;23749;51.410;21.130;2022-10-19T05:41:03;10.93;;;7.93;;
37917;SDS011;23749;51.410;21.130;2022-10-19T05:44:20;10.03;;;7.87;;
37917;SDS011;23749;51.410;21.130;2022-10-19T05:47:31;11.17;;;8.37;;
37917;SDS011;23749;51.410;21.130;2022-10-19T05:50:51;9.93;;;6.77;;
37917;SDS011;23749;51.410;21.130;2022-10-19T05:54:01;10.20;;;7.47;;
37917;SDS011;23749;51.410;21.130;2022-10-19T05:57:12;11.53;;;7.80;;
37917;SDS011;23749;51.410;21.130;2022-10-19T06:00:23;9.83;;;8.37;;
37917;SDS011;23749;51.410;21.130;2022-10-19T06:03:33;8.60;;;6.93;;
37917;SDS011;23749;51.410;21.130;2022-10-19T06:06:44;9.00;;;7.10;;
37917;SDS011;23749;51.410;21.130;2022-10-19T06:09:54;14.23;;;8.30;;
37917;SDS011;23749;51.410;21.130;2022-10-19T06:13:05;9.00;;;7.20;;
37917;SDS011;23749;51.410;21.130;2022-10-19T06:16:16;10.73;;;8.50;;
37917;SDS011;23749;51.410;21.130;2022-10-19T06:19:26;9.93;;;6.97;;
37917;SDS011;23749;51.410;21.130;2022-10-19T06:22:37;11.77;;;8.23;;
37917;SDS011;23749;51.410;21.130;2022-10-19T06:25:47;11.50;;;8.60;;
37917;SDS011;23749;51.410;21.130;2022-10-19T06:28:58;11.97;;;8.70;;
37917;SDS011;23749;51.410;21.130;2022-10-19T06:32:09;10.57;;;8.30;;
37917;SDS011;23749;51.410;21.130;2022-10-19T06:35:19;10.13;;;8.90;;
37917;SDS011;23749;51.410;21.130;2022-10-19T06:38:30;12.67;;;10.37;;
37917;SDS011;23749;51.410;21.130;2022-10-19T06:41:40;14.27;;;9.00;;
37917;SDS011;23749;51.410;21.130;2022-10-19T06:44:50;9.43;;;8.07;;
37917;SDS011;23749;51.410;21.130;2022-10-19T06:48:01;9.87;;;7.83;;
37917;SDS011;23749;51.410;21.130;2022-10-19T06:51:11;9.97;;;8.33;;
37917;SDS011;23749;51.410;21.130;2022-10-19T06:54:22;12.20;;;8.87;;
37917;SDS011;23749;51.410;21.130;2022-10-19T06:57:34;11.50;;;8.50;;
37917;SDS011;23749;51.410;21.130;2022-10-19T07:00:44;12.23;;;8.83;;
37917;SDS011;23749;51.410;21.130;2022-10-19T07:03:55;9.03;;;8.07;;
37917;SDS011;23749;51.410;21.130;2022-10-19T07:07:05;11.47;;;8.40;;
37917;SDS011;23749;51.410;21.130;2022-10-19T07:10:16;12.40;;;8.57;;
37917;SDS011;23749;51.410;21.130;2022-10-19T07:13:27;12.50;;;8.87;;
37917;SDS011;23749;51.410;21.130;2022-10-19T07:16:37;9.73;;;8.63;;
37917;SDS011;23749;51.410;21.130;2022-10-19T07:19:48;10.87;;;8.50;;
37917;SDS011;23749;51.410;21.130;2022-10-19T07:22:58;8.57;;;7.77;;
37917;SDS011;23749;51.410;21.130;2022-10-19T07:26:16;10.60;;;7.70;;
37917;SDS011;23749;51.410;21.130;2022-10-19T07:29:27;12.67;;;8.40;;
37917;SDS011;23749;51.410;21.130;2022-10-19T07:32:37;10.37;;;7.93;;
37917;SDS011;23749;51.410;21.130;2022-10-19T07:35:47;10.80;;;9.00;;
37917;SDS011;23749;51.410;21.130;2022-10-19T07:38:59;9.17;;;8.27;;
37917;SDS011;23749;51.410;21.130;2022-10-19T07:42:10;10.10;;;7.97;;
37917;SDS011;23749;51.410;21.130;2022-10-19T07:45:20;9.83;;;8.47;;
37917;SDS011;23749;51.410;21.130;2022-10-19T07:48:30;12.07;;;8.97;;
37917;SDS011;23749;51.410;21.130;2022-10-19T07:51:41;10.93;;;8.00;;
37917;SDS011;23749;51.410;21.130;2022-10-19T07:54:51;10.13;;;7.73;;
37917;SDS011;23749;51.410;21.130;2022-10-19T07:58:02;11.07;;;8.17;;
37917;SDS011;23749;51.410;21.130;2022-10-19T08:01:13;10.37;;;8.20;;
37917;SDS011;23749;51.410;21.130;2022-10-19T08:04:24;10.23;;;7.57;;
37917;SDS011;23749;51.410;21.130;2022-10-19T08:07:35;8.13;;;7.33;;
37917;SDS011;23749;51.410;21.130;2022-10-19T08:10:45;9.53;;;7.80;;
37917;SDS011;23749;51.410;21.130;2022-10-19T08:13:55;10.10;;;8.20;;
37917;SDS011;23749;51.410;21.130;2022-10-19T08:17:09;11.70;;;8.83;;
37917;SDS011;23749;51.410;21.130;2022-10-19T08:20:20;8.20;;;7.40;;
37917;SDS011;23749;51.410;21.130;2022-10-19T08:23:31;7.03;;;6.33;;
37917;SDS011;23749;51.410;21.130;2022-10-19T08:26:41;8.37;;;7.43;;
37917;SDS011;23749;51.410;21.130;2022-10-19T08:29:51;10.10;;;7.30;;
37917;SDS011;23749;51.410;21.130;2022-10-19T08:33:02;7.93;;;7.20;;
37917;SDS011;23749;51.410;21.130;2022-10-19T08:36:14;8.23;;;7.33;;
37917;SDS011;23749;51.410;21.130;2022-10-19T08:39:24;8.47;;;6.97;;
37917;SDS011;23749;51.410;21.130;2022-10-19T08:46:19;8.43;;;7.63;;
37917;SDS011;23749;51.410;21.130;2022-10-19T08:49:23;11.17;;;7.83;;
37917;SDS011;23749;51.410;21.130;2022-10-19T08:52:34;11.13;;;7.97;;
37917;SDS011;23749;51.410;21.130;2022-10-19T08:55:55;9.80;;;6.90;;
37917;SDS011;23749;51.410;21.130;2022-10-19T08:59:10;8.33;;;6.10;;
37917;SDS011;23749;51.410;21.130;2022-10-19T09:09:13;6.20;;;5.60;;
37917;SDS011;23749;51.410;21.130;2022-10-19T09:12:32;6.30;;;4.57;;
37917;SDS011;23749;51.410;21.130;2022-10-19T09:15:45;4.77;;;4.27;;
37917;SDS011;23749;51.410;21.130;2022-10-19T09:18:55;6.53;;;4.37;;
37917;SDS011;23749;51.410;21.130;2022-10-19T09:22:15;4.30;;;3.90;;
37917;SDS011;23749;51.410;21.130;2022-10-19T09:25:27;4.83;;;4.17;;
37917;SDS011;23749;51.410;21.130;2022-10-19T09:31:59;6.73;;;3.90;;
37917;SDS011;23749;51.410;21.130;2022-10-19T09:35:27;6.40;;;4.37;;
37917;SDS011;23749;51.410;21.130;2022-10-19T09:38:38;4.30;;;3.90;;
37917;SDS011;23749;51.410;21.130;2022-10-19T09:41:50;5.87;;;4.20;;
37917;SDS011;23749;51.410;21.130;2022-10-19T09:45:15;4.43;;;3.90;;
37917;SDS011;23749;51.410;21.130;2022-10-19T09:48:43;4.17;;;3.70;;
37917;SDS011;23749;51.410;21.130;2022-10-19T09:51:57;4.77;;;3.80;;
37917;SDS011;23749;51.410;21.130;2022-10-19T09:58:24;6.73;;;3.73;;
37917;SDS011;23749;51.410;21.130;2022-10-19T10:01:36;7.80;;;3.80;;
37917;SDS011;23749;51.410;21.130;2022-10-19T10:04:54;4.03;;;3.63;;
37917;SDS011;23749;51.410;21.130;2022-10-19T10:08:11;5.20;;;3.90;;
37917;SDS011;23749;51.410;21.130;2022-10-19T10:11:23;3.83;;;3.50;;
37917;SDS011;23749;51.410;21.130;2022-10-19T10:14:34;3.80;;;3.40;;
37917;SDS011;23749;51.410;21.130;2022-10-19T10:17:46;3.50;;;3.20;;
37917;SDS011;23749;51.410;21.130;2022-10-19T10:20:59;3.30;;;3.00;;
37917;SDS011;23749;51.410;21.130;2022-10-19T10:27:33;3.57;;;3.27;;
37917;SDS011;23749;51.410;21.130;2022-10-19T10:30:44;4.07;;;3.40;;
37917;SDS011;23749;51.410;21.130;2022-10-19T10:33:59;3.50;;;3.20;;
37917;SDS011;23749;51.410;21.130;2022-10-19T10:37:27;3.53;;;3.10;;
37917;SDS011;23749;51.410;21.130;2022-10-19T10:40:38;4.60;;;3.53;;
37917;SDS011;23749;51.410;21.130;2022-10-19T10:43:54;3.27;;;2.87;;
37917;SDS011;23749;51.410;21.130;2022-10-19T10:47:05;3.67;;;3.07;;
37917;SDS011;23749;51.410;21.130;2022-10-19T10:50:23;3.77;;;3.37;;
37917;SDS011;23749;51.410;21.130;2022-10-19T10:53:38;3.63;;;3.20;;
37917;SDS011;23749;51.410;21.130;2022-10-19T11:00:21;3.93;;;3.27;;
37917;SDS011;23749;51.410;21.130;2022-10-19T11:03:34;3.47;;;3.10;;
37917;SDS011;23749;51.410;21.130;2022-10-19T11:06:46;3.93;;;3.27;;
37917;SDS011;23749;51.410;21.130;2022-10-19T11:10:11;4.30;;;3.30;;
37917;SDS011;23749;51.410;21.130;2022-10-19T11:13:27;3.20;;;2.90;;
37917;SDS011;23749;51.410;21.130;2022-10-19T11:16:40;3.47;;;2.93;;
37917;SDS011;23749;51.410;21.130;2022-10-19T11:19:51;3.57;;;3.07;;
37917;SDS011;23749;51.410;21.130;2022-10-19T11:23:12;2.53;;;2.43;;
37917;SDS011;23749;51.410;21.130;2022-10-19T11:26:33;4.07;;;2.70;;
37917;SDS011;23749;51.410;21.130;2022-10-19T11:33:04;3.47;;;3.03;;
37917;SDS011;23749;51.410;21.130;2022-10-19T11:36:37;4.20;;;2.93;;
37917;SDS011;23749;51.410;21.130;2022-10-19T11:46:47;4.87;;;3.37;;
37917;SDS011;23749;51.410;21.130;2022-10-19T11:50:02;4.47;;;3.70;;
37917;SDS011;23749;51.410;21.130;2022-10-19T12:03:09;5.03;;;3.33;;
37917;SDS011;23749;51.410;21.130;2022-10-19T12:06:22;3.80;;;3.40;;
37917;SDS011;23749;51.410;21.130;2022-10-19T12:09:56;3.43;;;3.13;;
37917;SDS011;23749;51.410;21.130;2022-10-19T12:13:12;3.93;;;3.53;;
37917;SDS011;23749;51.410;21.130;2022-10-19T12:16:27;3.30;;;3.00;;
37917;SDS011;23749;51.410;21.130;2022-10-19T12:19:39;3.33;;;3.03;;
37917;SDS011;23749;51.410;21.130;2022-10-19T12:22:51;3.27;;;2.50;;
37917;SDS011;23749;51.410;21.130;2022-10-19T12:26:03;3.33;;;2.50;;
37917;SDS011;23749;51.410;21.130;2022-10-19T12:29:18;2.60;;;2.40;;
37917;SDS011;23749;51.410;21.130;2022-10-19T12:32:32;2.70;;;2.50;;
37917;SDS011;23749;51.410;21.130;2022-10-19T12:42:30;2.60;;;2.40;;
37917;SDS011;23749;51.410;21.130;2022-10-19T12:45:44;3.10;;;2.10;;
37917;SDS011;23749;51.410;21.130;2022-10-19T12:52:42;3.63;;;2.77;;
37917;SDS011;23749;51.410;21.130;2022-10-19T12:59:22;2.67;;;2.47;;
37917;SDS011;23749;51.410;21.130;2022-10-19T13:02:34;3.20;;;2.50;;
37917;SDS011;23749;51.410;21.130;2022-10-19T13:05:55;3.60;;;2.47;;
37917;SDS011;23749;51.410;21.130;2022-10-19T13:09:07;3.10;;;2.80;;
37917;SDS011;23749;51.410;21.130;2022-10-19T13:22:24;6.83;;;4.10;;
37917;SDS011;23749;51.410;21.130;2022-10-19T13:25:44;10.90;;;7.43;;
37917;SDS011;23749;51.410;21.130;2022-10-19T13:28:54;3.50;;;3.20;;
37917;SDS011;23749;51.410;21.130;2022-10-19T13:35:34;3.03;;;2.80;;
37917;SDS011;23749;51.410;21.130;2022-10-19T13:41:58;4.03;;;3.23;;
37917;SDS011;23749;51.410;21.130;2022-10-19T13:45:19;3.23;;;2.67;;
37917;SDS011;23749;51.410;21.130;2022-10-19T14:01:47;2.63;;;2.43;;
37917;SDS011;23749;51.410;21.130;2022-10-19T14:05:41;3.43;;;2.43;;
37917;SDS011;23749;51.410;21.130;2022-10-19T14:12:22;2.37;;;2.27;;
37917;SDS011;23749;51.410;21.130;2022-10-19T14:15:33;2.23;;;2.07;;
37917;SDS011;23749;51.410;21.130;2022-10-19T14:18:51;3.10;;;2.80;;
37917;SDS011;23749;51.410;21.130;2022-10-19T14:22:16;3.57;;;2.90;;
37917;SDS011;23749;51.410;21.130;2022-10-19T14:25:26;4.97;;;4.00;;
37917;SDS011;23749;51.410;21.130;2022-10-19T14:28:38;4.67;;;3.67;;
37917;SDS011;23749;51.410;21.130;2022-10-19T14:31:48;3.80;;;3.00;;
37917;SDS011;23749;51.410;21.130;2022-10-19T14:35:03;4.23;;;3.53;;
37917;SDS011;23749;51.410;21.130;2022-10-19T14:38:16;3.97;;;3.50;;
37917;SDS011;23749;51.410;21.130;2022-10-19T14:41:28;3.73;;;3.07;;
37917;SDS011;23749;51.410;21.130;2022-10-19T14:44:40;5.13;;;3.50;;
37917;SDS011;23749;51.410;21.130;2022-10-19T14:47:58;4.47;;;2.93;;
37917;SDS011;23749;51.410;21.130;2022-10-19T14:51:32;3.37;;;3.03;;
37917;SDS011;23749;51.410;21.130;2022-10-19T14:54:40;3.43;;;2.53;;
37917;SDS011;23749;51.410;21.130;2022-10-19T14:57:52;2.50;;;2.30;;
37917;SDS011;23749;51.410;21.130;2022-10-19T15:01:03;2.90;;;2.37;;
37917;SDS011;23749;51.410;21.130;2022-10-19T15:04:18;2.60;;;2.40;;
37917;SDS011;23749;51.410;21.130;2022-10-19T15:10:41;2.80;;;2.60;;
37917;SDS011;23749;51.410;21.130;2022-10-19T15:14:02;2.60;;;2.40;;
37917;SDS011;23749;51.410;21.130;2022-10-19T15:17:33;2.40;;;2.20;;
37917;SDS011;23749;51.410;21.130;2022-10-19T15:20:45;2.30;;;2.10;;
37917;SDS011;23749;51.410;21.130;2022-10-19T15:23:55;2.17;;;1.97;;
37917;SDS011;23749;51.410;21.130;2022-10-19T15:27:18;3.07;;;2.30;;
37917;SDS011;23749;51.410;21.130;2022-10-19T15:30:30;2.67;;;2.47;;
37917;SDS011;23749;51.410;21.130;2022-10-19T15:33:46;3.63;;;2.53;;
37917;SDS011;23749;51.410;21.130;2022-10-19T15:36:58;3.67;;;2.80;;
37917;SDS011;23749;51.410;21.130;2022-10-19T15:40:10;3.53;;;3.23;;
37917;SDS011;23749;51.410;21.130;2022-10-19T15:49:57;3.40;;;3.10;;
37917;SDS011;23749;51.410;21.130;2022-10-19T15:53:08;5.07;;;3.53;;
37917;SDS011;23749;51.410;21.130;2022-10-19T15:56:19;6.43;;;4.17;;
37917;SDS011;23749;51.410;21.130;2022-10-19T15:59:29;6.47;;;4.80;;
37917;SDS011;23749;51.410;21.130;2022-10-19T16:02:40;9.70;;;7.17;;
37917;SDS011;23749;51.410;21.130;2022-10-19T16:05:50;10.33;;;6.43;;
37917;SDS011;23749;51.410;21.130;2022-10-19T16:09:00;8.80;;;4.70;;
37917;SDS011;23749;51.410;21.130;2022-10-19T16:12:12;6.80;;;4.03;;
37917;SDS011;23749;51.410;21.130;2022-10-19T16:15:23;6.50;;;4.40;;
37917;SDS011;23749;51.410;21.130;2022-10-19T16:18:33;7.30;;;4.53;;
37917;SDS011;23749;51.410;21.130;2022-10-19T16:21:43;6.50;;;4.47;;
37917;SDS011;23749;51.410;21.130;2022-10-19T16:24:54;7.40;;;4.53;;
37917;SDS011;23749;51.410;21.130;2022-10-19T16:28:04;5.50;;;4.30;;
37917;SDS011;23749;51.410;21.130;2022-10-19T16:31:15;6.77;;;4.73;;
37917;SDS011;23749;51.410;21.130;2022-10-19T16:34:25;5.70;;;4.77;;
37917;SDS011;23749;51.410;21.130;2022-10-19T16:37:36;8.17;;;6.33;;
37917;SDS011;23749;51.410;21.130;2022-10-19T16:40:46;6.20;;;4.93;;
37917;SDS011;23749;51.410;21.130;2022-10-19T16:43:56;5.60;;;4.50;;
37917;SDS011;23749;51.410;21.130;2022-10-19T16:47:07;5.13;;;4.50;;
37917;SDS011;23749;51.410;21.130;2022-10-19T16:50:17;6.73;;;4.77;;
37917;SDS011;23749;51.410;21.130;2022-10-19T16:53:28;5.87;;;4.60;;
37917;SDS011;23749;51.410;21.130;2022-10-19T16:56:42;6.63;;;5.10;;
37917;SDS011;23749;51.410;21.130;2022-10-19T16:59:53;5.80;;;4.60;;
37917;SDS011;23749;51.410;21.130;2022-10-19T17:03:04;5.37;;;4.50;;
37917;SDS011;23749;51.410;21.130;2022-10-19T17:06:14;5.03;;;3.73;;
37917;SDS011;23749;51.410;21.130;2022-10-19T17:09:25;4.07;;;3.67;;
37917;SDS011;23749;51.410;21.130;2022-10-19T17:12:39;4.00;;;3.50;;
37917;SDS011;23749;51.410;21.130;2022-10-19T17:15:49;5.27;;;4.10;;
37917;SDS011;23749;51.410;21.130;2022-10-19T17:19:00;5.63;;;4.93;;
37917;SDS011;23749;51.410;21.130;2022-10-19T17:22:12;9.30;;;7.00;;
37917;SDS011;23749;51.410;21.130;2022-10-19T17:25:22;7.47;;;5.07;;
37917;SDS011;23749;51.410;21.130;2022-10-19T17:28:33;4.97;;;4.10;;
37917;SDS011;23749;51.410;21.130;2022-10-19T17:31:44;6.07;;;5.43;;
37917;SDS011;23749;51.410;21.130;2022-10-19T17:34:54;5.50;;;5.00;;
37917;SDS011;23749;51.410;21.130;2022-10-19T17:38:04;6.50;;;5.20;;
37917;SDS011;23749;51.410;21.130;2022-10-19T17:41:16;5.40;;;4.90;;
37917;SDS011;23749;51.410;21.130;2022-10-19T17:44:26;3.90;;;3.40;;
37917;SDS011;23749;51.410;21.130;2022-10-19T17:47:37;5.67;;;4.20;;
37917;SDS011;23749;51.410;21.130;2022-10-19T17:50:54;5.60;;;4.80;;
37917;SDS011;23749;51.410;21.130;2022-10-19T17:54:06;12.47;;;8.50;;
37917;SDS011;23749;51.410;21.130;2022-10-19T17:57:16;16.80;;;13.00;;
37917;SDS011;23749;51.410;21.130;2022-10-19T18:00:26;24.60;;;19.27;;
37917;SDS011;23749;51.410;21.130;2022-10-19T18:03:37;47.73;;;30.17;;
37917;SDS011;23749;51.410;21.130;2022-10-19T18:06:48;23.57;;;16.20;;
37917;SDS011;23749;51.410;21.130;2022-10-19T18:09:58;22.17;;;16.27;;
37917;SDS011;23749;51.410;21.130;2022-10-19T18:13:08;26.70;;;18.87;;
37917;SDS011;23749;51.410;21.130;2022-10-19T18:16:23;15.93;;;12.27;;
37917;SDS011;23749;51.410;21.130;2022-10-19T18:19:34;14.43;;;10.47;;
37917;SDS011;23749;51.410;21.130;2022-10-19T18:22:44;13.77;;;8.13;;
37917;SDS011;23749;51.410;21.130;2022-10-19T18:25:54;9.97;;;6.60;;
37917;SDS011;23749;51.410;21.130;2022-10-19T18:29:09;8.10;;;5.87;;
37917;SDS011;23749;51.410;21.130;2022-10-19T18:32:19;6.67;;;5.17;;
37917;SDS011;23749;51.410;21.130;2022-10-19T18:35:37;18.73;;;11.93;;
37917;SDS011;23749;51.410;21.130;2022-10-19T18:38:51;25.47;;;15.17;;
37917;SDS011;23749;51.410;21.130;2022-10-19T18:42:02;11.70;;;8.13;;
37917;SDS011;23749;51.410;21.130;2022-10-19T18:45:12;12.33;;;8.47;;
37917;SDS011;23749;51.410;21.130;2022-10-19T18:48:23;15.77;;;10.47;;
37917;SDS011;23749;51.410;21.130;2022-10-19T18:51:34;15.17;;;9.10;;
37917;SDS011;23749;51.410;21.130;2022-10-19T18:54:44;12.70;;;7.90;;
37917;SDS011;23749;51.410;21.130;2022-10-19T18:57:55;8.70;;;6.43;;
37917;SDS011;23749;51.410;21.130;2022-10-19T19:01:09;8.37;;;6.23;;
37917;SDS011;23749;51.410;21.130;2022-10-19T19:04:20;8.50;;;6.67;;
37917;SDS011;23749;51.410;21.130;2022-10-19T19:07:30;12.93;;;6.70;;
37917;SDS011;23749;51.410;21.130;2022-10-19T19:10:40;6.67;;;5.67;;
37917;SDS011;23749;51.410;21.130;2022-10-19T19:13:51;8.87;;;6.00;;
37917;SDS011;23749;51.410;21.130;2022-10-19T19:17:02;20.37;;;11.40;;
37917;SDS011;23749;51.410;21.130;2022-10-19T19:20:13;63.77;;;25.57;;
37917;SDS011;23749;51.410;21.130;2022-10-19T19:23:24;59.80;;;23.80;;
37917;SDS011;23749;51.410;21.130;2022-10-19T19:26:37;37.27;;;15.50;;
37917;SDS011;23749;51.410;21.130;2022-10-19T19:29:49;49.47;;;19.07;;
37917;SDS011;23749;51.410;21.130;2022-10-19T19:32:59;120.57;;;69.50;;
37917;SDS011;23749;51.410;21.130;2022-10-19T19:36:10;40.03;;;23.17;;
37917;SDS011;23749;51.410;21.130;2022-10-19T19:39:21;31.23;;;15.63;;
37917;SDS011;23749;51.410;21.130;2022-10-19T19:42:32;15.70;;;9.37;;
37917;SDS011;23749;51.410;21.130;2022-10-19T19:45:43;14.10;;;7.13;;
37917;SDS011;23749;51.410;21.130;2022-10-19T19:48:57;11.97;;;6.80;;
37917;SDS011;23749;51.410;21.130;2022-10-19T19:52:07;9.20;;;5.60;;
37917;SDS011;23749;51.410;21.130;2022-10-19T19:55:17;9.07;;;6.00;;
37917;SDS011;23749;51.410;21.130;2022-10-19T19:58:28;10.00;;;6.20;;
37917;SDS011;23749;51.410;21.130;2022-10-19T20:01:38;9.63;;;5.73;;
37917;SDS011;23749;51.410;21.130;2022-10-19T20:04:49;7.47;;;5.00;;
37917;SDS011;23749;51.410;21.130;2022-10-19T20:08:00;12.97;;;7.13;;
37917;SDS011;23749;51.410;21.130;2022-10-19T20:11:11;14.70;;;10.57;;
37917;SDS011;23749;51.410;21.130;2022-10-19T20:14:22;19.67;;;9.53;;
37917;SDS011;23749;51.410;21.130;2022-10-19T20:17:33;18.17;;;9.10;;
37917;SDS011;23749;51.410;21.130;2022-10-19T20:20:43;22.43;;;10.33;;
37917;SDS011;23749;51.410;21.130;2022-10-19T20:23:55;19.07;;;8.47;;
37917;SDS011;23749;51.410;21.130;2022-10-19T20:27:05;15.50;;;7.23;;
37917;SDS011;23749;51.410;21.130;2022-10-19T20:30:15;9.87;;;5.33;;
37917;SDS011;23749;51.410;21.130;2022-10-19T20:33:27;8.20;;;4.43;;
37917;SDS011;23749;51.410;21.130;2022-10-19T20:36:37;7.67;;;5.17;;
37917;SDS011;23749;51.410;21.130;2022-10-19T20:39:48;9.37;;;5.60;;
37917;SDS011;23749;51.410;21.130;2022-10-19T20:42:58;6.47;;;3.97;;
37917;SDS011;23749;51.410;21.130;2022-10-19T20:46:16;3.97;;;3.43;;
37917;SDS011;23749;51.410;21.130;2022-10-19T20:49:26;4.40;;;3.77;;
37917;SDS011;23749;51.410;21.130;2022-10-19T20:52:37;4.43;;;3.40;;